Time;durP1;ratioP1;P1;durP2;ratioP2;P2;SDS_P1;SDS_P2;PMS_P1;PMS_P2;Temp;Humidity;BMP_temperature;BMP_pressure;BME280_temperature;BME280_humidity;BME280_pressure;Samples;Min_cycle;Max_cycle;Signal;HPM_P1;HPM_P2
2022/03/23 00:01:23;;;;;;;81.45;14.13;;;;;;;;;;5094015;28;20302;-71
2022/03/23 00:03:50;;;;;;;73.57;13.05;;;;;;;;;;5094728;28;20586;-69
2022/03/23 00:06:17;;;;;;;73.25;12.25;;;;;;;;;;5094321;28;20658;-70
2022/03/23 00:08:44;;;;;;;75.05;13.00;;;;;;;;;;5093740;28;20220;-74
2022/03/23 00:11:12;;;;;;;73.57;12.27;;;;;;;;;;5094173;28;20295;-69
2022/03/23 00:13:39;;;;;;;71.75;13.77;;;;;;;;;;5094244;28;20204;-70
2022/03/23 00:16:08;;;;;;;75.93;12.38;;;;;;;;;;5094183;28;20307;-69
2022/03/23 00:18:35;;;;;;;77.13;12.57;;;;;;;;;;5093802;28;20204;-71
2022/03/23 00:21:02;;;;;;;72.15;12.52;;;;;;;;;;5094555;28;20291;-69
2022/03/23 00:23:29;;;;;;;76.13;13.70;;;;;;;;;;5093855;28;20239;-70
2022/03/23 00:25:59;;;;;;;76.65;13.75;;;;;;;;;;5094353;28;20244;-69
2022/03/23 00:28:26;;;;;;;74.15;13.60;;;;;;;;;;5105406;28;20220;-69
2022/03/23 00:30:54;;;;;;;78.85;12.85;;;;;;;;;;5114403;28;20211;-70
2022/03/23 00:33:22;;;;;;;73.72;14.10;;;;;;;;;;5114285;28;20292;-73
2022/03/23 00:35:50;;;;;;;73.13;12.25;;;;;;;;;;5114185;28;20237;-70
2022/03/23 00:38:17;;;;;;;73.88;13.48;;;;;;;;;;5113532;28;20216;-70
2022/03/23 00:40:45;;;;;;;76.63;12.05;;;;;;;;;;5114348;28;20294;-70
2022/03/23 00:43:12;;;;;;;72.70;13.35;;;;;;;;;;5113982;27;20206;-70
2022/03/23 00:45:40;;;;;;;74.88;12.98;;;;;;;;;;5114482;28;20291;-71
2022/03/23 00:48:07;;;;;;;71.90;12.27;;;;;;;;;;5113233;28;20262;-70
2022/03/23 00:50:35;;;;;;;73.25;13.15;;;;;;;;;;5114189;28;20204;-70
2022/03/23 00:53:03;;;;;;;72.47;12.45;;;;;;;;;;5113953;28;20200;-70
2022/03/23 00:55:30;;;;;;;76.43;12.88;;;;;;;;;;5114145;28;20204;-71
2022/03/23 00:57:57;;;;;;;71.07;11.85;;;;;;;;;;5112970;28;20228;-70
2022/03/23 01:00:24;;;;;;;72.70;12.70;;;;;;;;;;5096972;28;20291;-70
2022/03/23 01:02:52;;;;;;;73.78;13.25;;;;;;;;;;5093505;28;20208;-70
2022/03/23 01:05:19;;;;;;;70.93;11.95;;;;;;;;;;5093314;28;20216;-69
2022/03/23 01:07:48;;;;;;;73.30;13.30;;;;;;;;;;5092619;28;20307;-70
2022/03/23 01:10:16;;;;;;;71.63;11.10;;;;;;;;;;5093538;28;20200;-70
2022/03/23 01:12:44;;;;;;;75.53;13.20;;;;;;;;;;5092298;28;20235;-70
2022/03/23 01:15:11;;;;;;;73.63;12.55;;;;;;;;;;5093325;28;20231;-70
2022/03/23 01:17:39;;;;;;;75.10;13.23;;;;;;;;;;5092338;28;20227;-70
2022/03/23 01:20:08;;;;;;;75.90;11.32;;;;;;;;;;5093223;28;20220;-70
2022/03/23 01:22:35;;;;;;;72.35;11.65;;;;;;;;;;5093416;28;20731;-69
2022/03/23 01:25:04;;;;;;;72.93;11.70;;;;;;;;;;5093258;28;20292;-73
2022/03/23 01:27:31;;;;;;;72.05;11.93;;;;;;;;;;5092182;28;20310;-70
2022/03/23 01:29:58;;;;;;;70.07;11.60;;;;;;;;;;5091710;28;20600;-73
2022/03/23 01:32:26;;;;;;;72.18;11.52;;;;;;;;;;5090576;28;20243;-70
2022/03/23 01:34:53;;;;;;;71.63;12.23;;;;;;;;;;5093295;28;20200;-71
2022/03/23 01:37:20;;;;;;;74.90;12.65;;;;;;;;;;5092065;28;20597;-69
2022/03/23 01:39:47;;;;;;;72.85;12.75;;;;;;;;;;5092541;28;20230;-70
2022/03/23 01:42:15;;;;;;;72.72;11.55;;;;;;;;;;5092770;28;20238;-74
2022/03/23 01:44:43;;;;;;;76.35;13.38;;;;;;;;;;5092725;28;20743;-69
2022/03/23 01:47:11;;;;;;;72.32;12.30;;;;;;;;;;5091987;28;20320;-72
2022/03/23 01:49:39;;;;;;;72.57;12.38;;;;;;;;;;5092370;28;20291;-70
2022/03/23 01:52:07;;;;;;;72.82;12.40;;;;;;;;;;5092616;28;20311;-69
2022/03/23 01:54:35;;;;;;;76.57;16.13;;;;;;;;;;5092445;28;20208;-70
2022/03/23 01:57:03;;;;;;;81.10;18.50;;;;;;;;;;5092242;28;20230;-70
2022/03/23 01:59:32;;;;;;;75.68;16.95;;;;;;;;;;5091725;28;20236;-69
2022/03/23 02:01:59;;;;;;;74.68;14.10;;;;;;;;;;5091436;28;20231;-69
2022/03/23 02:04:26;;;;;;;72.15;12.63;;;;;;;;;;5090058;28;20291;-70
2022/03/23 02:06:54;;;;;;;72.00;13.32;;;;;;;;;;5092286;28;20255;-73
2022/03/23 02:09:21;;;;;;;73.32;14.00;;;;;;;;;;5091343;28;20196;-70
2022/03/23 02:11:49;;;;;;;75.93;12.52;;;;;;;;;;5091937;28;20218;-70
2022/03/23 02:14:16;;;;;;;75.13;12.05;;;;;;;;;;5092176;28;20204;-72
2022/03/23 02:16:46;;;;;;;74.70;13.45;;;;;;;;;;5092197;28;20224;-70
2022/03/23 02:19:13;;;;;;;73.75;13.10;;;;;;;;;;5091233;28;20310;-71
2022/03/23 02:21:44;;;;;;;79.20;13.00;;;;;;;;;;5092414;28;20200;-71
2022/03/23 02:24:12;;;;;;;77.63;12.40;;;;;;;;;;5091976;28;20235;-71
2022/03/23 02:26:39;;;;;;;72.28;12.65;;;;;;;;;;5096961;28;20306;-71
2022/03/23 02:29:06;;;;;;;74.57;13.48;;;;;;;;;;5111722;27;20213;-74
2022/03/23 02:31:33;;;;;;;70.90;11.75;;;;;;;;;;5112549;28;20206;-71
2022/03/23 02:34:00;;;;;;;75.55;12.88;;;;;;;;;;5112064;28;20231;-72
2022/03/23 02:36:28;;;;;;;72.90;11.00;;;;;;;;;;5109574;28;20274;-71
2022/03/23 02:38:56;;;;;;;70.03;11.73;;;;;;;;;;5111309;28;20290;-72
2022/03/23 02:41:23;;;;;;;70.47;12.85;;;;;;;;;;5112233;28;20746;-71
2022/03/23 02:43:51;;;;;;;70.47;12.13;;;;;;;;;;5112144;28;20295;-74
2022/03/23 02:46:18;;;;;;;72.25;12.82;;;;;;;;;;5112015;28;20231;-71
2022/03/23 02:48:46;;;;;;;72.38;12.23;;;;;;;;;;5111383;28;20204;-71
2022/03/23 02:51:14;;;;;;;72.75;12.70;;;;;;;;;;5112188;28;20219;-72
2022/03/23 03:02:12;;;;;;;71.70;11.73;;;;;;;;;;5112123;28;20568;-71
2022/03/23 03:04:39;;;;;;;71.15;11.63;;;;;;;;;;5112230;28;20203;-74
2022/03/23 03:07:06;;;;;;;72.90;11.88;;;;;;;;;;5108107;28;20220;-71
2022/03/23 03:09:33;;;;;;;72.60;12.15;;;;;;;;;;5111365;28;20227;-73
2022/03/23 03:12:02;;;;;;;71.20;12.18;;;;;;;;;;5112117;28;20639;-71
2022/03/23 03:14:31;;;;;;;70.32;11.07;;;;;;;;;;5111880;28;20671;-72
2022/03/23 03:16:58;;;;;;;72.70;12.32;;;;;;;;;;5111750;28;20262;-72
2022/03/23 03:19:25;;;;;;;73.38;12.23;;;;;;;;;;5111063;28;20215;-71
2022/03/23 03:21:52;;;;;;;69.28;12.00;;;;;;;;;;5111748;28;20203;-72
2022/03/23 03:24:20;;;;;;;71.40;11.88;;;;;;;;;;5111964;28;20203;-73
2022/03/23 03:26:47;;;;;;;72.07;12.25;;;;;;;;;;5112112;28;20282;-71
2022/03/23 03:29:16;;;;;;;72.60;11.55;;;;;;;;;;5111176;28;20234;-72
2022/03/23 03:31:43;;;;;;;72.50;12.55;;;;;;;;;;5111872;28;20251;-72
2022/03/23 03:34:10;;;;;;;71.40;11.50;;;;;;;;;;5111768;28;20290;-72
2022/03/23 03:36:37;;;;;;;70.65;11.35;;;;;;;;;;5113192;28;20334;-68
2022/03/23 03:39:05;;;;;;;69.95;11.93;;;;;;;;;;5110917;28;20208;-71
2022/03/23 03:41:32;;;;;;;71.63;11.82;;;;;;;;;;5115406;28;20310;-71
2022/03/23 03:43:59;;;;;;;71.30;11.63;;;;;;;;;;5115506;28;20207;-71
2022/03/23 03:46:28;;;;;;;71.68;11.15;;;;;;;;;;5115237;28;20233;-72
2022/03/23 03:48:55;;;;;;;73.45;13.43;;;;;;;;;;5114443;28;20203;-72
2022/03/23 03:51:22;;;;;;;70.05;10.85;;;;;;;;;;5115288;28;20246;-74
2022/03/23 03:53:50;;;;;;;70.55;11.30;;;;;;;;;;5115278;28;20203;-72
2022/03/23 03:56:17;;;;;;;72.05;13.38;;;;;;;;;;5115181;28;20588;-71
2022/03/23 03:58:44;;;;;;;72.93;12.15;;;;;;;;;;5114347;28;20306;-71
2022/03/23 04:01:12;;;;;;;72.03;11.73;;;;;;;;;;5115056;27;20808;-71
2022/03/23 04:03:41;;;;;;;70.70;12.90;;;;;;;;;;5114756;28;20210;-73
2022/03/23 04:06:08;;;;;;;70.13;10.30;;;;;;;;;;5115193;28;20223;-71
2022/03/23 04:08:36;;;;;;;70.32;12.00;;;;;;;;;;5114569;27;20203;-72
2022/03/23 04:11:03;;;;;;;72.57;10.90;;;;;;;;;;5110340;27;20208;-72
2022/03/23 04:13:30;;;;;;;69.97;10.98;;;;;;;;;;5114819;27;20620;-71
2022/03/23 04:15:58;;;;;;;68.45;11.18;;;;;;;;;;5114746;27;20206;-72
2022/03/23 04:18:25;;;;;;;70.55;10.52;;;;;;;;;;5114286;28;20298;-71
2022/03/23 04:20:53;;;;;;;69.93;12.43;;;;;;;;;;5114588;28;20718;-72
2022/03/23 04:23:20;;;;;;;70.13;12.02;;;;;;;;;;5114597;28;20204;-72
2022/03/23 04:25:47;;;;;;;71.30;11.48;;;;;;;;;;5114482;28;20206;-74
2022/03/23 04:28:14;;;;;;;76.45;12.00;;;;;;;;;;5113921;28;20208;-71
2022/03/23 04:30:42;;;;;;;68.88;10.75;;;;;;;;;;5114085;28;20303;-71
2022/03/23 04:33:09;;;;;;;70.03;11.30;;;;;;;;;;5114559;28;20208;-72
2022/03/23 04:35:36;;;;;;;71.78;11.43;;;;;;;;;;5114645;28;20303;-72
2022/03/23 04:38:05;;;;;;;70.63;12.20;;;;;;;;;;5113535;27;20259;-72
2022/03/23 04:40:32;;;;;;;69.38;10.30;;;;;;;;;;5114316;28;20272;-72
2022/03/23 04:43:00;;;;;;;70.22;11.25;;;;;;;;;;5100011;28;20299;-74
2022/03/23 04:45:27;;;;;;;75.50;13.38;;;;;;;;;;5093760;28;20208;-71
2022/03/23 04:47:54;;;;;;;72.30;10.88;;;;;;;;;;5092944;28;20220;-73
2022/03/23 04:50:21;;;;;;;71.30;11.52;;;;;;;;;;5093611;28;20203;-71
2022/03/23 04:52:52;;;;;;;78.35;10.82;;;;;;;;;;5093337;28;20210;-73
2022/03/23 04:55:20;;;;;;;67.55;10.25;;;;;;;;;;5093797;28;20295;-71
2022/03/23 04:57:48;;;;;;;73.55;11.93;;;;;;;;;;5092569;28;20225;-71
2022/03/23 05:00:16;;;;;;;71.38;12.38;;;;;;;;;;5093493;28;20224;-71
2022/03/23 05:02:44;;;;;;;71.40;11.63;;;;;;;;;;5093627;28;20200;-71
2022/03/23 05:05:12;;;;;;;68.10;11.27;;;;;;;;;;5093720;28;20211;-71
2022/03/23 05:07:39;;;;;;;70.50;12.13;;;;;;;;;;5092763;28;20228;-71
2022/03/23 05:10:08;;;;;;;77.15;12.00;;;;;;;;;;5092849;28;20291;-74
2022/03/23 05:12:37;;;;;;;71.95;11.07;;;;;;;;;;5093086;28;20206;-71
2022/03/23 05:15:06;;;;;;;72.82;12.27;;;;;;;;;;5104143;28;20203;-70
2022/03/23 05:17:33;;;;;;;72.15;12.00;;;;;;;;;;5113050;28;20581;-70
2022/03/23 05:20:01;;;;;;;71.85;12.38;;;;;;;;;;5113634;28;20220;-70
2022/03/23 05:22:28;;;;;;;71.80;11.43;;;;;;;;;;5113381;28;20260;-70
2022/03/23 05:24:55;;;;;;;73.97;12.00;;;;;;;;;;5113265;28;20207;-71
2022/03/23 05:27:23;;;;;;;70.55;12.10;;;;;;;;;;5112728;28;20318;-70
2022/03/23 05:29:51;;;;;;;74.97;12.80;;;;;;;;;;5113413;28;20303;-71
2022/03/23 05:32:18;;;;;;;72.68;13.50;;;;;;;;;;5113099;28;20210;-70
2022/03/23 05:34:46;;;;;;;71.88;13.43;;;;;;;;;;5113338;28;20200;-70
2022/03/23 05:37:13;;;;;;;75.78;13.23;;;;;;;;;;5112682;28;20309;-70
2022/03/23 05:39:40;;;;;;;71.97;11.75;;;;;;;;;;5112957;28;20207;-70
2022/03/23 05:42:08;;;;;;;72.03;13.65;;;;;;;;;;5113319;28;20581;-72
2022/03/23 05:44:35;;;;;;;71.72;12.85;;;;;;;;;;5111858;28;20206;-68
2022/03/23 05:47:04;;;;;;;74.88;12.82;;;;;;;;;;5090476;28;20307;-71
2022/03/23 05:49:31;;;;;;;74.43;13.35;;;;;;;;;;5091882;28;20211;-71
2022/03/23 05:51:58;;;;;;;72.63;12.90;;;;;;;;;;5092298;28;20247;-70
2022/03/23 05:54:26;;;;;;;71.50;12.48;;;;;;;;;;5092417;28;20246;-70
2022/03/23 05:56:53;;;;;;;72.03;12.05;;;;;;;;;;5092517;28;20230;-70
2022/03/23 05:59:20;;;;;;;71.00;11.40;;;;;;;;;;5091126;28;20204;-71
2022/03/23 06:01:48;;;;;;;71.75;12.30;;;;;;;;;;5092244;28;20232;-73
2022/03/23 06:04:16;;;;;;;70.40;11.63;;;;;;;;;;5092192;28;20207;-70
2022/03/23 06:06:43;;;;;;;68.75;10.82;;;;;;;;;;5092120;28;20255;-70
2022/03/23 06:09:12;;;;;;;68.07;11.57;;;;;;;;;;5091837;28;20212;-70
2022/03/23 06:11:39;;;;;;;74.05;11.93;;;;;;;;;;5092287;28;20208;-71
2022/03/23 06:14:06;;;;;;;71.32;11.98;;;;;;;;;;5092081;28;20200;-70
2022/03/23 06:16:34;;;;;;;68.70;12.52;;;;;;;;;;5088474;28;20314;-70
2022/03/23 06:19:01;;;;;;;73.65;13.13;;;;;;;;;;5091692;28;20601;-70
2022/03/23 06:21:29;;;;;;;71.13;13.05;;;;;;;;;;5091819;28;20224;-70
2022/03/23 06:23:56;;;;;;;75.05;12.23;;;;;;;;;;5092062;28;20254;-71
2022/03/23 06:26:24;;;;;;;72.22;13.15;;;;;;;;;;5092046;28;20224;-70
2022/03/23 06:28:51;;;;;;;72.40;11.23;;;;;;;;;;5091412;28;20204;-71
2022/03/23 06:31:18;;;;;;;71.05;10.82;;;;;;;;;;5091729;28;20215;-70
2022/03/23 06:33:45;;;;;;;68.35;9.80;;;;;;;;;;5091496;28;20314;-71
2022/03/23 06:36:12;;;;;;;72.90;12.63;;;;;;;;;;5091975;28;20249;-70
2022/03/23 06:38:41;;;;;;;72.38;11.65;;;;;;;;;;5091238;28;20208;-70
2022/03/23 06:41:08;;;;;;;72.82;10.60;;;;;;;;;;5091915;28;20310;-70
2022/03/23 06:43:36;;;;;;;69.28;11.18;;;;;;;;;;5091568;28;20200;-71
2022/03/23 06:46:04;;;;;;;72.10;12.18;;;;;;;;;;5091634;28;20216;-72
2022/03/23 06:48:31;;;;;;;70.43;11.10;;;;;;;;;;5090734;28;20208;-70
2022/03/23 06:50:59;;;;;;;70.65;12.43;;;;;;;;;;5112257;28;20216;-71
2022/03/23 06:53:26;;;;;;;73.82;12.07;;;;;;;;;;5112065;28;20231;-70
2022/03/23 06:55:55;;;;;;;72.43;11.98;;;;;;;;;;5112149;28;20602;-73
2022/03/23 06:58:22;;;;;;;72.45;11.82;;;;;;;;;;5111389;28;20203;-70
2022/03/23 07:00:49;;;;;;;71.80;12.15;;;;;;;;;;5112024;28;20277;-70
2022/03/23 07:03:16;;;;;;;76.80;13.25;;;;;;;;;;5112009;28;20286;-70
2022/03/23 07:05:43;;;;;;;73.38;12.00;;;;;;;;;;5112142;28;20789;-70
2022/03/23 07:10:56;;;;;;;74.03;12.02;;;;;;;;;;5114282;28;20198;-71
2022/03/23 07:13:23;;;;;;;70.57;11.60;;;;;;;;;;5115376;28;20298;-70
2022/03/23 07:15:51;;;;;;;67.47;11.48;;;;;;;;;;5115848;28;20200;-71
2022/03/23 07:18:18;;;;;;;73.30;11.13;;;;;;;;;;5115219;28;20295;-73
2022/03/23 07:20:45;;;;;;;75.50;12.43;;;;;;;;;;5111103;28;20230;-70
2022/03/23 07:23:12;;;;;;;74.25;12.18;;;;;;;;;;5114989;28;20235;-72
2022/03/23 07:25:39;;;;;;;69.80;11.70;;;;;;;;;;5115488;28;20298;-70
2022/03/23 07:28:08;;;;;;;77.18;12.80;;;;;;;;;;5115239;28;20220;-71
2022/03/23 07:30:35;;;;;;;73.57;12.32;;;;;;;;;;5115715;28;20203;-71
2022/03/23 07:33:03;;;;;;;69.80;12.65;;;;;;;;;;5115562;28;20210;-71
2022/03/23 07:35:30;;;;;;;72.32;13.43;;;;;;;;;;5115551;28;20637;-70
2022/03/23 07:37:57;;;;;;;70.22;11.45;;;;;;;;;;5114761;28;20786;-70
2022/03/23 07:40:25;;;;;;;71.03;12.20;;;;;;;;;;5115123;28;20294;-70
2022/03/23 07:42:52;;;;;;;70.90;12.10;;;;;;;;;;5115416;28;20203;-70
2022/03/23 07:45:20;;;;;;;71.35;11.90;;;;;;;;;;5115467;28;20213;-72
2022/03/23 07:47:47;;;;;;;73.32;12.90;;;;;;;;;;5114464;28;20266;-70
2022/03/23 07:50:15;;;;;;;74.45;12.68;;;;;;;;;;5115295;27;20589;-74
2022/03/23 07:52:42;;;;;;;75.75;13.75;;;;;;;;;;5101028;28;20210;-71
2022/03/23 07:55:10;;;;;;;71.55;11.80;;;;;;;;;;5094798;28;20204;-72
2022/03/23 07:57:37;;;;;;;72.20;12.07;;;;;;;;;;5094010;28;20228;-72
2022/03/23 08:00:05;;;;;;;71.63;13.35;;;;;;;;;;5094844;28;20262;-70
2022/03/23 08:02:34;;;;;;;73.80;14.13;;;;;;;;;;5094116;28;20734;-71
2022/03/23 08:05:01;;;;;;;74.68;14.20;;;;;;;;;;5094689;28;20601;-70
2022/03/23 08:07:28;;;;;;;74.15;13.75;;;;;;;;;;5093814;28;20232;-71
2022/03/23 08:09:55;;;;;;;74.88;14.48;;;;;;;;;;5094738;28;20295;-71
2022/03/23 08:12:23;;;;;;;76.72;14.45;;;;;;;;;;5094617;28;20200;-70
2022/03/23 08:14:50;;;;;;;77.10;14.07;;;;;;;;;;5094234;28;20695;-71
2022/03/23 08:17:17;;;;;;;74.68;13.88;;;;;;;;;;5093618;28;20230;-70
2022/03/23 08:20:32;;;;;;;74.90;14.32;;;;;;;;;;5094403;28;20208;-71
2022/03/23 08:22:33;;;;;;;75.10;13.77;;;;;;;;;;5092175;28;20231;-71
2022/03/23 08:25:00;;;;;;;79.88;13.75;;;;;;;;;;5109317;28;20308;-71
2022/03/23 08:27:27;;;;;;;73.80;14.65;;;;;;;;;;5113895;28;20676;-71
2022/03/23 08:29:54;;;;;;;76.72;14.80;;;;;;;;;;5114616;28;20673;-71
2022/03/23 08:32:22;;;;;;;82.78;15.20;;;;;;;;;;5114834;28;20197;-71
2022/03/23 08:34:51;;;;;;;78.63;17.17;;;;;;;;;;5114488;28;20235;-71
2022/03/23 08:37:18;;;;;;;80.90;18.13;;;;;;;;;;5113874;28;20231;-73
2022/03/23 08:39:45;;;;;;;78.83;14.20;;;;;;;;;;5114485;28;20953;-71
2022/03/23 08:42:12;;;;;;;76.90;14.93;;;;;;;;;;5114280;27;20485;-72
2022/03/23 08:44:41;;;;;;;76.37;15.47;;;;;;;;;;5114158;28;20447;-72
2022/03/23 08:47:08;;;;;;;78.10;14.87;;;;;;;;;;5114269;27;20484;-72
2022/03/23 08:49:36;;;;;;;79.50;16.77;;;;;;;;;;5114588;28;20447;-71
2022/03/23 08:52:04;;;;;;;76.10;15.20;;;;;;;;;;5114257;27;20439;-71
2022/03/23 08:54:32;;;;;;;81.77;15.00;;;;;;;;;;5114065;28;20443;-72
2022/03/23 08:56:59;;;;;;;77.10;14.70;;;;;;;;;;5110651;28;20482;-72
2022/03/23 08:59:26;;;;;;;80.93;14.63;;;;;;;;;;5113160;28;20537;-71
2022/03/23 09:01:53;;;;;;;81.27;16.13;;;;;;;;;;5114067;28;20495;-71
2022/03/23 09:04:20;;;;;;;79.40;15.40;;;;;;;;;;5113864;28;20533;-71
2022/03/23 09:06:48;;;;;;;78.80;16.23;;;;;;;;;;5113713;28;20490;-68
2022/03/23 09:09:17;;;;;;;79.93;17.27;;;;;;;;;;5112730;28;20933;-68
2022/03/23 09:11:44;;;;;;;85.13;17.20;;;;;;;;;;5113916;28;21005;-69
2022/03/23 09:14:11;;;;;;;78.93;15.83;;;;;;;;;;5113382;28;20889;-69
2022/03/23 09:16:39;;;;;;;83.67;16.70;;;;;;;;;;5113998;28;20472;-68
2022/03/23 09:19:06;;;;;;;77.47;17.77;;;;;;;;;;5113012;28;20451;-67
2022/03/23 09:21:33;;;;;;;79.60;15.00;;;;;;;;;;5113546;28;20481;-70
2022/03/23 09:24:00;;;;;;;84.47;17.33;;;;;;;;;;5113344;28;20532;-68
2022/03/23 09:26:29;;;;;;;78.50;16.77;;;;;;;;;;5108094;28;20471;-70
2022/03/23 09:28:57;;;;;;;80.83;16.30;;;;;;;;;;5093004;28;20450;-68
2022/03/23 09:31:24;;;;;;;78.60;15.83;;;;;;;;;;5093127;28;20897;-67
2022/03/23 09:33:51;;;;;;;80.70;16.53;;;;;;;;;;5092002;28;20530;-69
2022/03/23 09:39:06;;;;;;;78.70;15.83;;;;;;;;;;5091771;28;20422;-70
2022/03/23 09:41:35;;;;;;;81.43;16.80;;;;;;;;;;5092750;28;21039;-69
2022/03/23 09:44:02;;;;;;;80.80;16.17;;;;;;;;;;5092601;28;20438;-70
2022/03/23 09:46:32;;;;;;;77.40;16.47;;;;;;;;;;5092888;28;20557;-70
2022/03/23 09:48:59;;;;;;;77.67;16.20;;;;;;;;;;5091905;28;20473;-67
2022/03/23 09:51:27;;;;;;;79.50;16.50;;;;;;;;;;5092464;28;20525;-68
2022/03/23 09:53:54;;;;;;;78.10;16.70;;;;;;;;;;5092545;28;20977;-70
2022/03/23 09:56:21;;;;;;;80.63;17.20;;;;;;;;;;5091991;28;20463;-68
2022/03/23 09:58:50;;;;;;;79.03;17.20;;;;;;;;;;5098205;28;20800;-68
2022/03/23 10:02:02;;;;;;;76.93;16.83;;;;;;;;;;5112295;28;20474;-70
2022/03/23 10:04:55;;;;;;;76.37;15.67;;;;;;;;;;5112061;28;20542;-69
2022/03/23 10:07:25;;;;;;;80.43;16.20;;;;;;;;;;5111766;28;20576;-68
2022/03/23 10:10:13;;;;;;;80.43;18.23;;;;;;;;;;5112277;28;20537;-69
2022/03/23 10:13:21;;;;;;;73.83;15.40;;;;;;;;;;5112794;28;20437;-70
2022/03/23 10:16:07;;;;;;;73.40;15.63;;;;;;;;;;5112393;28;20448;-68
2022/03/23 10:18:54;;;;;;;78.30;18.70;;;;;;;;;;5111660;28;20852;-69
2022/03/23 10:21:22;;;;;;;73.97;15.70;;;;;;;;;;5112256;28;20556;-70
2022/03/23 10:23:53;;;;;;;76.20;16.03;;;;;;;;;;5112867;28;20446;-71
2022/03/23 10:26:20;;;;;;;73.63;16.97;;;;;;;;;;5112595;28;20480;-69
2022/03/23 10:28:47;;;;;;;74.97;15.43;;;;;;;;;;5110553;28;20892;-69
2022/03/23 10:31:16;;;;;;;74.30;16.43;;;;;;;;;;5109736;28;20458;-69
2022/03/23 10:33:43;;;;;;;73.20;16.40;;;;;;;;;;5112438;28;20489;-71
2022/03/23 10:36:12;;;;;;;74.70;17.57;;;;;;;;;;5112525;28;20466;-70
2022/03/23 10:38:40;;;;;;;73.57;16.30;;;;;;;;;;5111700;28;20788;-70
2022/03/23 10:41:09;;;;;;;71.43;14.73;;;;;;;;;;5111874;28;20445;-72
2022/03/23 10:43:38;;;;;;;70.80;16.53;;;;;;;;;;5112014;28;20441;-70
2022/03/23 10:46:08;;;;;;;70.50;14.93;;;;;;;;;;5117576;28;20814;-70
2022/03/23 10:48:35;;;;;;;72.43;14.60;;;;;;;;;;5118602;27;20445;-71
2022/03/23 10:51:03;;;;;;;71.80;15.40;;;;;;;;;;5119062;27;20445;-70
2022/03/23 10:53:35;;;;;;;70.77;14.30;;;;;;;;;;5118903;27;20569;-70
2022/03/23 10:56:03;;;;;;;72.40;15.10;;;;;;;;;;5118748;27;20440;-70
2022/03/23 10:58:30;;;;;;;72.30;15.77;;;;;;;;;;5118445;27;20446;-72
2022/03/23 11:00:59;;;;;;;68.87;14.50;;;;;;;;;;5114624;27;20536;-71
2022/03/23 11:03:40;;;;;;;69.07;14.67;;;;;;;;;;5118636;27;20949;-70
2022/03/23 11:06:08;;;;;;;70.90;15.57;;;;;;;;;;5118712;27;20500;-70
2022/03/23 11:08:37;;;;;;;69.47;14.43;;;;;;;;;;5118027;27;20529;-70
2022/03/23 11:16:39;;;;;;;69.93;14.37;;;;;;;;;;5118774;28;20917;-73
2022/03/23 11:19:14;;;;;;;72.13;14.23;;;;;;;;;;5117858;27;20528;-71
2022/03/23 11:21:57;;;;;;;70.47;14.13;;;;;;;;;;5118448;27;20437;-70
2022/03/23 11:24:26;;;;;;;65.83;11.90;;;;;;;;;;5116518;27;20958;-69
2022/03/23 11:26:55;;;;;;;75.60;13.23;;;;;;;;;;5118619;27;20465;-70
2022/03/23 11:29:22;;;;;;;66.97;13.73;;;;;;;;;;5117649;27;20449;-70
2022/03/23 11:31:52;;;;;;;68.70;13.00;;;;;;;;;;5110246;27;20493;-70
2022/03/23 11:34:21;;;;;;;66.87;13.20;;;;;;;;;;5098180;28;20543;-70
2022/03/23 11:36:49;;;;;;;66.40;13.00;;;;;;;;;;5097980;28;20557;-70
2022/03/23 11:39:17;;;;;;;68.13;12.73;;;;;;;;;;5097496;28;21024;-70
2022/03/23 11:41:46;;;;;;;65.43;11.80;;;;;;;;;;5097486;28;20446;-70
2022/03/23 11:44:16;;;;;;;68.10;12.53;;;;;;;;;;5097850;28;20450;-70
2022/03/23 11:46:43;;;;;;;68.57;12.57;;;;;;;;;;5098104;28;20837;-70
2022/03/23 11:49:15;;;;;;;70.83;12.47;;;;;;;;;;5097377;28;20544;-70
2022/03/23 11:51:51;;;;;;;66.50;11.90;;;;;;;;;;5097702;28;20961;-71
2022/03/23 11:54:23;;;;;;;67.27;11.23;;;;;;;;;;5097729;28;20460;-71
2022/03/23 11:56:56;;;;;;;70.73;11.80;;;;;;;;;;5095301;28;20556;-71
2022/03/23 11:59:24;;;;;;;69.80;10.77;;;;;;;;;;5093988;28;20481;-71
2022/03/23 12:01:52;;;;;;;65.87;10.67;;;;;;;;;;5093553;28;20951;-71
2022/03/23 12:04:20;;;;;;;66.00;11.23;;;;;;;;;;5105018;28;20938;-71
2022/03/23 12:06:47;;;;;;;65.23;10.93;;;;;;;;;;5114833;28;21013;-71
2022/03/23 12:09:30;;;;;;;65.43;11.50;;;;;;;;;;5114062;28;20449;-71
2022/03/23 12:11:59;;;;;;;65.23;11.27;;;;;;;;;;5114781;28;20487;-73
2022/03/23 12:14:28;;;;;;;63.53;11.50;;;;;;;;;;5114841;28;20460;-71
2022/03/23 12:17:02;;;;;;;65.40;11.90;;;;;;;;;;5114767;28;20553;-71
2022/03/23 12:19:30;;;;;;;65.60;11.80;;;;;;;;;;5113757;28;20953;-70
2022/03/23 12:22:00;;;;;;;65.53;11.20;;;;;;;;;;5114600;28;20499;-70
2022/03/23 12:24:29;;;;;;;62.77;9.73;;;;;;;;;;5114538;28;20498;-70
2022/03/23 12:26:58;;;;;;;64.37;10.83;;;;;;;;;;5114661;28;20504;-71
2022/03/23 12:29:28;;;;;;;65.07;11.17;;;;;;;;;;5113909;28;20446;-70
2022/03/23 12:32:05;;;;;;;66.70;11.30;;;;;;;;;;5114193;28;20938;-71
2022/03/23 12:34:33;;;;;;;63.47;10.13;;;;;;;;;;5113578;28;20449;-75
2022/03/23 12:37:08;;;;;;;63.57;11.43;;;;;;;;;;5112417;28;20556;-71
2022/03/23 12:39:39;;;;;;;66.90;11.37;;;;;;;;;;5114454;28;20449;-71
2022/03/23 12:42:17;;;;;;;65.10;11.80;;;;;;;;;;5113997;28;20469;-71
2022/03/23 12:44:47;;;;;;;65.20;12.13;;;;;;;;;;5114358;28;20801;-71
2022/03/23 12:47:16;;;;;;;64.60;10.83;;;;;;;;;;5113325;28;20465;-71
2022/03/23 12:58:04;;;;;;;66.80;13.37;;;;;;;;;;5113239;28;20452;-71
2022/03/23 13:00:33;;;;;;;68.10;12.53;;;;;;;;;;5113937;28;20438;-72
2022/03/23 13:03:30;;;;;;;65.83;12.77;;;;;;;;;;5113605;28;20504;-71
2022/03/23 13:06:07;;;;;;;66.20;12.50;;;;;;;;;;5113459;28;20536;-73
2022/03/23 13:08:46;;;;;;;65.30;12.03;;;;;;;;;;5091542;28;20453;-71
2022/03/23 13:11:13;;;;;;;64.60;12.60;;;;;;;;;;5093879;28;20457;-71
2022/03/23 13:13:41;;;;;;;65.40;13.10;;;;;;;;;;5092810;28;20858;-70
2022/03/23 13:16:11;;;;;;;67.60;13.40;;;;;;;;;;5093309;28;20474;-71
2022/03/23 13:18:38;;;;;;;66.20;13.20;;;;;;;;;;5092606;28;20450;-71
2022/03/23 13:21:10;;;;;;;65.30;12.07;;;;;;;;;;5093055;28;20973;-73
2022/03/23 13:23:40;;;;;;;66.33;11.60;;;;;;;;;;5092588;28;20568;-72
2022/03/23 13:26:09;;;;;;;63.40;11.73;;;;;;;;;;5092861;28;20480;-70
2022/03/23 13:28:37;;;;;;;66.30;11.77;;;;;;;;;;5092706;28;20451;-71
2022/03/23 13:31:07;;;;;;;65.70;11.30;;;;;;;;;;5093740;28;20461;-71
2022/03/23 13:33:39;;;;;;;65.17;13.23;;;;;;;;;;5093211;28;20446;-71
2022/03/23 13:36:07;;;;;;;76.60;12.10;;;;;;;;;;5093557;28;20484;-73
2022/03/23 13:38:37;;;;;;;66.57;12.23;;;;;;;;;;5096266;28;20773;-72
2022/03/23 13:43:52;;;;;;;67.70;12.17;;;;;;;;;;5113159;28;20962;-71
2022/03/23 13:46:20;;;;;;;63.50;11.87;;;;;;;;;;5113329;28;20568;-71
2022/03/23 13:48:58;;;;;;;67.03;12.60;;;;;;;;;;5112730;28;20541;-72
2022/03/23 13:51:26;;;;;;;69.43;11.40;;;;;;;;;;5114110;28;20434;-72
2022/03/23 13:53:53;;;;;;;64.70;11.93;;;;;;;;;;5113452;28;20475;-74
2022/03/23 13:56:20;;;;;;;66.83;11.97;;;;;;;;;;5113345;28;20461;-75
2022/03/23 13:58:49;;;;;;;66.97;10.47;;;;;;;;;;5113085;28;20449;-73
2022/03/23 14:01:18;;;;;;;64.87;11.83;;;;;;;;;;5113401;28;20495;-73
2022/03/23 14:03:46;;;;;;;70.90;12.87;;;;;;;;;;5112968;28;20489;-70
2022/03/23 14:06:15;;;;;;;65.57;12.57;;;;;;;;;;5113105;28;20965;-71
2022/03/23 14:08:51;;;;;;;65.47;11.10;;;;;;;;;;5112219;28;21145;-72
2022/03/23 14:11:19;;;;;;;65.13;11.50;;;;;;;;;;5113555;28;20456;-73
2022/03/23 14:13:50;;;;;;;65.70;11.50;;;;;;;;;;5113192;28;20528;-70
2022/03/23 14:16:20;;;;;;;73.43;13.80;;;;;;;;;;5112634;28;20470;-73
2022/03/23 14:18:48;;;;;;;65.80;12.70;;;;;;;;;;5112005;27;20449;-74
2022/03/23 14:21:20;;;;;;;65.13;12.33;;;;;;;;;;5112136;27;20839;-70
2022/03/23 14:23:47;;;;;;;66.80;12.93;;;;;;;;;;5112159;28;20502;-72
2022/03/23 14:26:32;;;;;;;68.10;11.30;;;;;;;;;;5112478;28;20463;-71
2022/03/23 14:29:00;;;;;;;70.50;12.57;;;;;;;;;;5112123;28;20639;-74
2022/03/23 14:31:27;;;;;;;67.27;11.80;;;;;;;;;;5112361;28;20453;-67
2022/03/23 14:33:55;;;;;;;65.97;10.37;;;;;;;;;;5112407;28;20441;-71
2022/03/23 14:36:25;;;;;;;65.80;11.13;;;;;;;;;;5112237;28;20977;-72
2022/03/23 14:38:52;;;;;;;65.00;11.90;;;;;;;;;;5111562;28;20446;-72
2022/03/23 14:41:20;;;;;;;64.40;10.93;;;;;;;;;;5112641;28;20489;-71
2022/03/23 14:43:49;;;;;;;67.20;12.10;;;;;;;;;;5112055;28;20571;-71
2022/03/23 14:46:20;;;;;;;65.70;10.93;;;;;;;;;;5112232;28;20553;-71
2022/03/23 14:48:48;;;;;;;66.03;10.90;;;;;;;;;;5111658;28;20457;-71
2022/03/23 14:51:16;;;;;;;66.60;10.97;;;;;;;;;;5112079;28;20441;-71
2022/03/23 14:53:47;;;;;;;67.73;10.90;;;;;;;;;;5111883;28;20934;-71
2022/03/23 14:56:14;;;;;;;65.47;10.13;;;;;;;;;;5112531;28;20497;-71